createdAt,value
2018-06-16T00:01:52.441Z,6.50
2018-06-16T00:04:21.596Z,6.53
2018-06-16T00:06:51.004Z,6.28
2018-06-16T00:09:20.116Z,7.58
2018-06-16T00:11:49.184Z,6.50
2018-06-16T00:14:18.562Z,6.50
2018-06-16T00:16:47.705Z,6.78
2018-06-16T00:19:16.764Z,7.10
2018-06-16T00:21:45.875Z,6.85
2018-06-16T00:24:15.250Z,7.40
2018-06-16T00:26:44.304Z,7.87
2018-06-16T00:29:13.576Z,6.97
2018-06-16T00:31:42.664Z,7.05
2018-06-16T00:34:11.744Z,6.65
2018-06-16T00:36:40.907Z,7.25
2018-06-16T00:39:11.412Z,7.22
2018-06-16T00:41:40.890Z,6.90
2018-06-16T00:44:10.058Z,7.83
2018-06-16T00:46:39.108Z,7.30
2018-06-16T00:49:08.457Z,6.67
2018-06-16T00:51:37.808Z,7.47
2018-06-16T00:54:06.905Z,6.97
2018-06-16T00:56:35.992Z,7.80
2018-06-16T00:59:05.195Z,6.97
2018-06-16T01:01:34.384Z,7.70
2018-06-16T01:04:03.510Z,10.05
2018-06-16T01:06:32.589Z,8.15
2018-06-16T01:09:01.733Z,6.53
2018-06-16T01:11:30.868Z,7.42
2018-06-16T01:14:00.357Z,7.37
2018-06-16T01:16:29.481Z,8.43
2018-06-16T01:18:58.626Z,8.13
2018-06-16T01:21:27.968Z,8.53
2018-06-16T01:23:57.061Z,8.30
2018-06-16T01:26:26.233Z,8.55
2018-06-16T01:28:55.324Z,7.22
2018-06-16T01:31:24.464Z,9.20
2018-06-16T01:33:53.608Z,7.55
2018-06-16T01:36:22.705Z,7.33
2018-06-16T01:38:52.028Z,7.47
2018-06-16T01:41:21.120Z,7.25
2018-06-16T01:43:51.092Z,7.58
2018-06-16T01:46:20.180Z,7.17
2018-06-16T01:48:49.260Z,9.75
2018-06-16T01:51:18.584Z,9.55
2018-06-16T01:53:47.729Z,7.37
2018-06-16T01:56:16.832Z,8.18
2018-06-16T01:58:46.244Z,8.30
2018-06-16T02:01:15.340Z,7.67
2018-06-16T02:03:44.532Z,6.92
2018-06-16T02:06:14.084Z,7.85
2018-06-16T02:08:43.220Z,7.12
2018-06-16T02:11:12.316Z,8.28
2018-06-16T02:13:41.433Z,7.80
2018-06-16T02:16:10.585Z,7.70
2018-06-16T02:18:39.680Z,7.67
2018-06-16T02:21:08.800Z,7.30
2018-06-16T02:23:37.884Z,7.60
2018-06-16T02:26:06.962Z,7.58
2018-06-16T02:28:36.759Z,8.00
2018-06-16T02:31:05.916Z,8.38
2018-06-16T02:33:35.187Z,8.10
2018-06-16T02:36:04.328Z,7.70
2018-06-16T02:38:33.379Z,8.45
2018-06-16T02:41:02.565Z,8.30
2018-06-16T02:43:31.673Z,8.30
2018-06-16T02:46:00.808Z,10.20
2018-06-16T02:48:29.954Z,8.38
2018-06-16T02:50:59.172Z,9.63
2018-06-16T02:53:28.678Z,8.48
2018-06-16T02:55:57.772Z,8.00
2018-06-16T02:58:27.120Z,8.45
2018-06-16T03:00:56.273Z,7.97
2018-06-16T03:03:25.462Z,10.08
2018-06-16T03:05:54.860Z,8.25
2018-06-16T03:08:23.960Z,8.23
2018-06-16T03:10:53.094Z,8.15
2018-06-16T03:13:22.352Z,8.25
2018-06-16T03:15:51.477Z,7.37
2018-06-16T03:18:20.799Z,7.60
2018-06-16T03:20:50.164Z,8.43
2018-06-16T03:23:19.272Z,7.05
2018-06-16T03:25:48.380Z,8.68
2018-06-16T03:28:17.449Z,8.55
2018-06-16T03:30:46.673Z,8.83
2018-06-16T03:33:15.728Z,9.35
2018-06-16T03:35:45.759Z,9.65
2018-06-16T03:38:14.852Z,8.73
2018-06-16T03:40:43.948Z,9.28
2018-06-16T03:43:13.508Z,8.35
2018-06-16T03:45:42.652Z,8.68
2018-06-16T03:48:11.776Z,8.90
2018-06-16T03:50:41.126Z,8.35
2018-06-16T03:53:10.228Z,7.92
2018-06-16T03:55:39.472Z,9.38
2018-06-16T03:58:08.979Z,9.65
2018-06-16T04:00:39.453Z,10.08
2018-06-16T04:03:08.572Z,8.30
2018-06-16T04:05:37.644Z,9.50
2018-06-16T04:08:07.072Z,9.80
2018-06-16T04:10:36.205Z,9.60
2018-06-16T04:13:05.449Z,8.18
2018-06-16T04:15:34.783Z,8.60
2018-06-16T04:18:03.940Z,9.13
2018-06-16T04:20:33.036Z,9.30
2018-06-16T04:23:02.380Z,8.78
2018-06-16T04:25:31.696Z,9.28
2018-06-16T04:28:00.774Z,9.50
2018-06-16T04:30:29.929Z,9.38
2018-06-16T04:32:59.059Z,9.48
2018-06-16T04:35:28.172Z,9.33
2018-06-16T04:37:57.568Z,8.58
2018-06-16T04:40:26.676Z,9.15
2018-06-16T04:42:55.768Z,8.48
2018-06-16T04:45:25.134Z,9.23
2018-06-16T04:47:54.268Z,9.58
2018-06-16T04:50:23.536Z,12.60
2018-06-16T04:52:52.969Z,10.18
2018-06-16T04:55:22.020Z,8.80
2018-06-16T04:57:51.140Z,9.75
2018-06-16T05:00:20.716Z,9.25
2018-06-16T05:02:50.065Z,10.35
2018-06-16T05:05:19.168Z,11.50
2018-06-16T05:07:48.688Z,11.50
2018-06-16T05:10:17.813Z,10.98
2018-06-16T05:12:46.844Z,10.48
2018-06-16T05:15:16.384Z,10.32
2018-06-16T05:17:45.517Z,9.55
2018-06-16T05:20:15.503Z,9.33
2018-06-16T05:22:44.644Z,9.80
2018-06-16T05:25:13.784Z,11.83
2018-06-16T05:27:43.142Z,9.78
2018-06-16T05:30:12.259Z,9.30
2018-06-16T05:32:41.580Z,12.07
2018-06-16T05:35:10.941Z,12.13
2018-06-16T05:37:40.065Z,10.95
2018-06-16T05:40:09.161Z,13.15
2018-06-16T05:42:38.472Z,10.00
2018-06-16T05:45:07.803Z,9.75
2018-06-16T05:47:36.956Z,9.83
2018-06-16T05:50:06.456Z,10.65
2018-06-16T05:52:35.608Z,8.80
2018-06-16T05:55:04.753Z,10.58
2018-06-16T05:57:33.964Z,9.80
2018-06-16T06:00:03.114Z,8.83
2018-06-16T06:02:32.217Z,8.23
2018-06-16T06:05:02.109Z,10.08
2018-06-16T06:07:31.250Z,8.55
2018-06-16T06:10:00.528Z,9.60
2018-06-16T06:12:29.656Z,10.43
2018-06-16T06:14:58.719Z,8.95
2018-06-16T06:17:27.799Z,8.93
2018-06-16T06:19:56.944Z,8.48
2018-06-16T06:22:26.340Z,9.83
2018-06-16T06:24:55.490Z,8.10
2018-06-16T06:27:24.993Z,8.08
2018-06-16T06:29:54.041Z,10.25
2018-06-16T06:32:23.132Z,8.40
2018-06-16T06:34:52.408Z,9.80
2018-06-16T06:37:21.629Z,8.65
2018-06-16T06:39:50.715Z,8.18
2018-06-16T06:42:20.044Z,8.78
2018-06-16T06:44:49.124Z,8.70
2018-06-16T06:47:18.321Z,8.80
2018-06-16T06:49:47.625Z,8.40
2018-06-16T06:52:16.764Z,7.87
2018-06-16T06:54:45.884Z,8.25
2018-06-16T06:57:15.633Z,8.25
2018-06-16T06:59:44.688Z,9.28
2018-06-16T07:02:13.812Z,7.58
2018-06-16T07:04:43.118Z,6.97
2018-06-16T07:07:12.206Z,8.75
2018-06-16T07:09:41.376Z,8.23
2018-06-16T07:12:10.509Z,7.65
2018-06-16T07:14:39.598Z,7.70
2018-06-16T07:17:08.744Z,7.10
2018-06-16T07:19:38.067Z,7.90
2018-06-16T07:22:07.292Z,9.25
2018-06-16T07:24:36.360Z,8.10
2018-06-16T07:27:05.924Z,7.08
2018-06-16T07:29:34.995Z,6.60
2018-06-16T07:32:04.157Z,7.42
2018-06-16T07:34:33.591Z,8.43
2018-06-16T07:37:02.656Z,7.72
2018-06-16T07:39:31.788Z,7.47
2018-06-16T07:42:01.024Z,8.03
2018-06-16T07:44:30.148Z,7.22
2018-06-16T07:46:59.477Z,7.08
2018-06-16T07:49:28.792Z,8.40
2018-06-16T07:51:57.880Z,8.35
2018-06-16T07:54:26.969Z,6.50
2018-06-16T07:56:56.369Z,6.37
2018-06-16T07:59:25.836Z,7.15
2018-06-16T08:01:54.928Z,7.83
2018-06-16T08:04:24.464Z,6.40
2018-06-16T08:06:53.569Z,6.28
2018-06-16T08:09:22.656Z,6.75
2018-06-16T08:11:52.040Z,6.45
2018-06-16T08:14:21.165Z,8.53
2018-06-16T08:16:50.260Z,7.00
2018-06-16T08:19:19.346Z,6.97
2018-06-16T08:21:48.448Z,6.80
2018-06-16T08:24:17.640Z,6.60
2018-06-16T08:26:47.148Z,6.72
2018-06-16T08:29:16.208Z,6.78
2018-06-16T08:31:45.304Z,5.95
2018-06-16T08:34:14.669Z,6.28
2018-06-16T08:36:43.892Z,8.53
2018-06-16T08:39:13.193Z,9.05
2018-06-16T08:41:42.420Z,6.37
2018-06-16T08:44:11.514Z,6.15
2018-06-16T08:46:40.636Z,5.17
2018-06-16T08:49:09.831Z,5.65
2018-06-16T08:51:38.896Z,6.75
2018-06-16T08:54:07.982Z,6.00
2018-06-16T08:56:37.272Z,4.92
2018-06-16T08:59:06.388Z,5.05
2018-06-16T09:01:35.804Z,7.28
2018-06-16T09:04:04.964Z,5.20
2018-06-16T09:06:34.101Z,5.40
2018-06-16T09:09:03.184Z,4.95
2018-06-16T09:11:32.556Z,6.45
2018-06-16T09:14:01.708Z,4.62
2018-06-16T09:16:30.853Z,5.28
2018-06-16T09:19:00.026Z,5.58
2018-06-16T09:21:29.784Z,5.45
2018-06-16T09:23:58.876Z,6.53
2018-06-16T09:26:27.972Z,5.70
2018-06-16T09:28:57.276Z,5.95
2018-06-16T09:31:26.388Z,5.80
2018-06-16T09:33:55.596Z,6.67
2018-06-16T09:36:24.723Z,6.53
2018-06-16T09:38:53.861Z,6.80
2018-06-16T09:41:23.909Z,6.75
2018-06-16T09:43:53.412Z,7.47
2018-06-16T09:46:22.496Z,6.28
2018-06-16T09:48:52.584Z,6.00
2018-06-16T09:51:21.684Z,6.33
2018-06-16T09:53:50.791Z,5.75
2018-06-16T09:56:20.125Z,6.05
2018-06-16T09:58:49.216Z,6.97
2018-06-16T10:01:18.460Z,6.65
2018-06-16T10:03:47.821Z,6.37
2018-06-16T10:06:16.908Z,6.40
2018-06-16T10:08:45.965Z,5.83
2018-06-16T10:11:15.072Z,6.20
2018-06-16T10:13:44.476Z,6.50
2018-06-16T10:16:13.542Z,8.48
2018-06-16T10:18:42.892Z,5.42
2018-06-16T10:21:12.034Z,5.20
2018-06-16T10:23:41.104Z,5.40
2018-06-16T10:26:10.309Z,6.03
2018-06-16T10:28:39.444Z,5.37
2018-06-16T10:31:08.570Z,4.60
2018-06-16T10:33:37.780Z,4.83
2018-06-16T10:36:06.888Z,5.20
2018-06-16T10:38:36.172Z,4.45
2018-06-16T10:41:05.576Z,4.00
2018-06-16T10:43:34.684Z,4.25
2018-06-16T10:46:03.764Z,4.50
2018-06-16T10:48:33.120Z,5.10
2018-06-16T10:51:02.386Z,4.00
2018-06-16T10:53:31.536Z,4.20
2018-06-16T10:56:00.916Z,5.75
2018-06-16T10:58:30.037Z,4.50
2018-06-16T11:00:59.156Z,3.72
2018-06-16T11:03:28.356Z,3.87
2018-06-16T11:05:57.440Z,3.77
2018-06-16T11:08:26.545Z,4.25
2018-06-16T11:10:55.906Z,4.05
2018-06-16T11:13:24.987Z,3.77
2018-06-16T11:15:54.320Z,4.22
2018-06-16T11:18:23.564Z,4.40
2018-06-16T11:20:52.713Z,4.30
2018-06-16T11:23:21.808Z,4.42
2018-06-16T11:25:51.165Z,3.70
2018-06-16T11:28:20.488Z,4.42
2018-06-16T11:30:49.592Z,4.10
2018-06-16T11:33:18.728Z,4.28
2018-06-16T11:35:47.821Z,3.90
2018-06-16T11:38:17.478Z,4.40
2018-06-16T11:40:46.562Z,3.40
2018-06-16T11:43:15.626Z,3.60
2018-06-16T11:45:44.736Z,4.10
2018-06-16T11:48:13.833Z,4.67
2018-06-16T11:50:42.980Z,3.83
2018-06-16T11:53:12.324Z,3.45
2018-06-16T11:55:41.381Z,4.17
2018-06-16T11:58:10.468Z,4.37
2018-06-16T12:00:40.496Z,3.35
2018-06-16T12:03:09.654Z,3.83
2018-06-16T12:05:38.712Z,3.20
2018-06-16T12:08:08.077Z,3.35
2018-06-16T12:10:37.188Z,3.60
2018-06-16T12:13:06.396Z,3.30
2018-06-16T12:15:35.492Z,3.83
2018-06-16T12:18:04.692Z,3.30
2018-06-16T12:20:33.868Z,3.90
2018-06-16T12:23:03.117Z,4.75
2018-06-16T12:25:32.472Z,4.87
2018-06-16T12:28:01.564Z,3.75
2018-06-16T12:30:30.920Z,3.98
2018-06-16T12:33:00.960Z,3.58
2018-06-16T12:35:29.999Z,3.75
2018-06-16T12:37:59.458Z,3.08
2018-06-16T12:40:28.582Z,3.00
2018-06-16T12:42:57.674Z,2.80
2018-06-16T12:45:26.917Z,2.80
2018-06-16T12:47:55.984Z,2.80
2018-06-16T12:50:25.468Z,2.80
2018-06-16T12:52:54.593Z,3.33
2018-06-16T12:55:23.740Z,6.47
2018-06-16T12:57:52.893Z,3.33
2018-06-16T13:00:21.997Z,3.08
2018-06-16T13:02:51.924Z,2.83
2018-06-16T13:05:21.039Z,2.70
2018-06-16T13:07:50.900Z,3.60
2018-06-16T13:10:20.084Z,4.55
2018-06-16T13:12:49.104Z,2.80
2018-06-16T13:15:18.397Z,2.62
2018-06-16T13:17:47.469Z,4.42
2018-06-16T13:20:16.692Z,2.83
2018-06-16T13:22:46.721Z,2.33
2018-06-16T13:25:15.867Z,3.58
2018-06-16T13:27:45.006Z,2.67
2018-06-16T13:30:14.356Z,2.60
2018-06-16T13:32:43.553Z,2.62
2018-06-16T13:35:12.660Z,2.98
2018-06-16T13:37:41.924Z,4.62
2018-06-16T13:40:10.988Z,2.62
2018-06-16T13:42:40.049Z,3.55
2018-06-16T13:45:09.464Z,3.58
2018-06-16T13:47:38.538Z,2.50
2018-06-16T13:50:07.696Z,2.77
2018-06-16T13:52:36.772Z,3.95
2018-06-16T13:55:05.977Z,2.55
2018-06-16T13:57:35.271Z,3.40
2018-06-16T14:00:04.856Z,2.75
2018-06-16T14:02:33.936Z,3.10
2018-06-16T14:05:03.064Z,2.85
2018-06-16T14:07:32.220Z,2.85
2018-06-16T14:10:01.624Z,3.10
2018-06-16T14:12:30.740Z,3.17
2018-06-16T14:15:00.123Z,2.75
2018-06-16T14:17:29.280Z,2.92
2018-06-16T14:19:58.332Z,3.27
2018-06-16T14:22:27.712Z,2.83
2018-06-16T14:24:56.844Z,2.85
2018-06-16T14:27:25.928Z,2.90
2018-06-16T14:29:55.476Z,2.37
2018-06-16T14:32:24.532Z,4.33
2018-06-16T14:34:53.768Z,2.30
2018-06-16T14:37:22.866Z,3.20
2018-06-16T14:39:52.281Z,2.10
2018-06-16T14:42:21.448Z,2.35
2018-06-16T14:44:50.572Z,2.35
2018-06-16T14:47:19.793Z,2.20
2018-06-16T14:49:48.930Z,2.58
2018-06-16T14:52:18.392Z,1.90
2018-06-16T14:54:47.535Z,2.52
2018-06-16T14:57:16.689Z,2.42
2018-06-16T14:59:45.832Z,2.27
2018-06-16T15:02:14.936Z,2.30
2018-06-16T15:04:44.096Z,2.98
2018-06-16T15:07:13.437Z,2.58
2018-06-16T15:09:42.600Z,1.95
2018-06-16T15:12:11.826Z,1.95
2018-06-16T15:14:41.206Z,2.17
2018-06-16T15:17:10.348Z,2.10
2018-06-16T15:19:40.257Z,2.30
2018-06-16T15:22:09.384Z,2.30
2018-06-16T15:24:38.480Z,3.67
2018-06-16T15:27:07.885Z,2.80
2018-06-16T15:29:37.016Z,1.75
2018-06-16T15:32:06.196Z,2.87
2018-06-16T15:34:35.571Z,2.75
2018-06-16T15:37:04.676Z,1.98
2018-06-16T15:39:33.821Z,2.02
2018-06-16T15:42:03.180Z,2.92
2018-06-16T15:44:32.528Z,1.80
2018-06-16T15:47:01.576Z,1.70
2018-06-16T15:49:30.940Z,2.10
2018-06-16T15:52:00.077Z,2.17
2018-06-16T15:54:29.200Z,2.45
2018-06-16T15:56:58.636Z,2.42
2018-06-16T15:59:27.765Z,1.90
2018-06-16T16:01:56.885Z,1.80
2018-06-16T16:04:26.150Z,1.85
2018-06-16T16:06:55.260Z,2.50
2018-06-16T16:09:24.453Z,2.70
2018-06-16T16:11:53.900Z,2.00
2018-06-16T16:14:22.977Z,2.50
2018-06-16T16:16:52.092Z,2.00
2018-06-16T16:19:22.084Z,3.62
2018-06-16T16:21:51.156Z,2.10
2018-06-16T16:24:20.273Z,1.95
2018-06-16T16:26:49.936Z,1.75
2018-06-16T16:29:19.097Z,2.10
2018-06-16T16:31:48.176Z,2.00
2018-06-16T16:34:17.520Z,4.78
2018-06-16T16:36:46.688Z,2.70
2018-06-16T16:39:15.872Z,3.27
2018-06-16T16:41:44.968Z,2.83
2018-06-16T16:44:14.089Z,2.47
2018-06-16T16:46:43.192Z,2.30
2018-06-16T16:49:12.688Z,3.12
2018-06-16T16:51:42.066Z,2.72
2018-06-16T16:54:11.190Z,3.92
2018-06-16T16:56:40.376Z,2.95
2018-06-16T16:59:09.472Z,2.58
2018-06-16T17:01:38.872Z,2.55
2018-06-16T17:04:09.016Z,2.47
2018-06-16T17:06:38.192Z,2.42
2018-06-16T17:09:09.536Z,2.40
2018-06-16T17:11:38.877Z,2.77
2018-06-16T17:14:08.028Z,2.25
2018-06-16T17:16:37.192Z,2.60
2018-06-16T17:19:06.544Z,2.17
2018-06-16T17:21:35.643Z,3.70
2018-06-16T17:24:04.792Z,2.45
2018-06-16T17:26:34.183Z,4.12
2018-06-16T17:29:03.337Z,3.52
2018-06-16T17:31:32.485Z,3.37
2018-06-16T17:34:01.982Z,3.77
2018-06-16T17:36:31.109Z,3.35
2018-06-16T17:39:00.188Z,3.60
2018-06-16T17:41:29.696Z,2.42
2018-06-16T17:43:58.829Z,2.72
2018-06-16T17:46:27.916Z,2.45
2018-06-16T17:48:57.320Z,2.47
2018-06-16T17:51:26.500Z,2.37
2018-06-16T17:53:55.628Z,2.65
2018-06-16T17:56:25.540Z,2.50
2018-06-16T17:58:54.648Z,2.85
2018-06-16T18:01:24.420Z,2.52
2018-06-16T18:03:54.352Z,2.92
2018-06-16T18:06:23.453Z,2.45
2018-06-16T18:08:52.548Z,2.72
2018-06-16T18:11:21.669Z,3.67
2018-06-16T18:13:50.700Z,4.60
2018-06-16T18:16:19.884Z,3.20
2018-06-16T18:18:49.008Z,2.77
2018-06-16T18:21:18.100Z,2.72
2018-06-16T18:23:47.196Z,3.42
2018-06-16T18:26:16.306Z,2.70
2018-06-16T18:28:45.490Z,3.25
2018-06-16T18:31:14.612Z,2.42
2018-06-16T18:33:43.908Z,2.40
2018-06-16T18:36:13.031Z,3.15
2018-06-16T18:38:42.116Z,2.83
2018-06-16T18:41:11.413Z,3.25
2018-06-16T18:43:40.508Z,3.90
2018-06-16T18:46:09.596Z,3.12
2018-06-16T18:48:38.867Z,4.95
2018-06-16T18:51:07.980Z,3.27
2018-06-16T18:53:37.293Z,3.92
2018-06-16T18:56:07.463Z,3.27
2018-06-16T18:58:36.521Z,4.85
2018-06-16T19:01:05.572Z,2.95
2018-06-16T19:03:34.891Z,4.85
2018-06-16T19:06:03.968Z,3.10
2018-06-16T19:08:33.192Z,4.33
2018-06-16T19:11:02.546Z,4.12
2018-06-16T19:13:31.664Z,3.15
2018-06-16T19:16:00.739Z,5.15
2018-06-16T19:18:30.292Z,4.28
2018-06-16T19:20:59.645Z,2.70
2018-06-16T19:23:28.792Z,3.17
2018-06-16T19:25:57.861Z,3.02
2018-06-16T19:28:26.969Z,4.42
2018-06-16T19:30:57.004Z,4.50
2018-06-16T19:33:26.144Z,3.77
2018-06-16T19:35:55.216Z,3.27
2018-06-16T19:38:24.572Z,3.40
2018-06-16T19:40:53.804Z,3.02
2018-06-16T19:43:23.128Z,6.45
2018-06-16T19:45:52.209Z,3.60
2018-06-16T19:48:21.356Z,3.40
2018-06-16T19:50:50.531Z,5.00
2018-06-16T19:53:19.888Z,3.70
2018-06-16T19:55:49.912Z,3.40
2018-06-16T19:58:19.407Z,4.30
2018-06-16T20:00:49.424Z,4.42
2018-06-16T20:03:18.488Z,7.75
2018-06-16T20:05:47.617Z,3.37
2018-06-16T20:08:16.961Z,2.92
2018-06-16T20:10:46.581Z,3.40
2018-06-16T20:13:15.693Z,3.87
2018-06-16T20:15:44.784Z,3.20
2018-06-16T20:18:14.009Z,3.75
2018-06-16T20:20:43.166Z,4.33
2018-06-16T20:23:12.304Z,4.65
2018-06-16T20:25:41.419Z,3.40
2018-06-16T20:28:10.589Z,4.40
2018-06-16T20:30:39.692Z,5.53
2018-06-16T20:33:08.884Z,3.65
2018-06-16T20:35:38.244Z,3.80
2018-06-16T20:38:07.389Z,3.52
2018-06-16T20:40:36.488Z,4.78
2018-06-16T20:43:05.660Z,3.90
2018-06-16T20:45:35.644Z,3.92
2018-06-16T20:48:04.973Z,3.22
2018-06-16T20:50:34.112Z,4.50
2018-06-16T20:53:03.212Z,5.60
2018-06-16T20:55:32.357Z,4.15
2018-06-16T20:58:01.559Z,5.53
2018-06-16T21:00:30.884Z,3.50
2018-06-16T21:02:59.996Z,3.52
2018-06-16T21:05:29.036Z,4.15
2018-06-16T21:07:58.396Z,4.70
2018-06-16T21:10:28.678Z,5.30
2018-06-16T21:12:57.805Z,4.87
2018-06-16T21:15:27.120Z,3.62
2018-06-16T21:17:56.292Z,5.03
2018-06-16T21:20:25.416Z,4.17
2018-06-16T21:22:54.708Z,3.67
2018-06-16T21:25:23.776Z,4.12
2018-06-16T21:27:52.944Z,3.58
2018-06-16T21:30:22.540Z,3.60
2018-06-16T21:32:51.643Z,4.83
2018-06-16T21:35:20.958Z,4.25
2018-06-16T21:37:50.873Z,3.72
2018-06-16T21:40:19.997Z,5.47
2018-06-16T21:42:49.092Z,3.10
2018-06-16T21:45:18.236Z,6.60
2018-06-16T21:47:47.389Z,4.62
2018-06-16T21:50:16.580Z,3.60
2018-06-16T21:52:45.887Z,3.90
2018-06-16T21:55:14.980Z,5.70
2018-06-16T21:57:44.072Z,4.12
2018-06-16T22:00:14.572Z,4.17
2018-06-16T22:02:44.054Z,3.60
2018-06-16T22:05:13.204Z,2.77
2018-06-16T22:07:42.300Z,3.42
2018-06-16T22:10:11.393Z,3.92
2018-06-16T22:12:40.506Z,3.75
2018-06-16T22:15:09.676Z,5.95
2018-06-16T22:17:38.752Z,4.87
2018-06-16T22:20:07.848Z,2.77
2018-06-16T22:22:37.354Z,3.87
2018-06-16T22:25:07.035Z,3.95
2018-06-16T22:27:36.288Z,4.60
2018-06-16T22:30:05.448Z,4.40
2018-06-16T22:32:34.527Z,4.08
2018-06-16T22:35:03.653Z,6.03
2018-06-16T22:37:32.824Z,6.47
2018-06-16T22:40:02.192Z,4.50
2018-06-16T22:42:31.276Z,4.62
2018-06-16T22:45:00.644Z,4.33
2018-06-16T22:47:29.773Z,6.08
2018-06-16T22:49:58.836Z,3.08
2018-06-16T22:52:28.276Z,3.52
2018-06-16T22:54:57.413Z,6.10
2018-06-16T22:57:26.428Z,3.27
2018-06-16T22:59:55.809Z,4.87
2018-06-16T23:02:25.011Z,5.80
2018-06-16T23:04:54.245Z,3.08
2018-06-16T23:07:23.445Z,4.17
2018-06-16T23:09:52.440Z,4.03
2018-06-16T23:12:21.561Z,6.30
2018-06-16T23:14:50.904Z,5.05
2018-06-16T23:17:20.320Z,3.02
2018-06-16T23:19:49.497Z,5.17
2018-06-16T23:22:18.969Z,9.10
2018-06-16T23:24:48.017Z,4.10
2018-06-16T23:27:17.144Z,4.83
2018-06-16T23:29:46.500Z,3.58
2018-06-16T23:32:15.640Z,4.33
2018-06-16T23:34:44.704Z,5.53
2018-06-16T23:37:14.028Z,5.00
2018-06-16T23:39:43.144Z,5.85
2018-06-16T23:42:12.605Z,3.95
2018-06-16T23:44:42.025Z,5.58
2018-06-16T23:47:11.592Z,5.65
2018-06-16T23:49:40.712Z,5.33
2018-06-16T23:52:10.064Z,4.60
2018-06-16T23:54:39.241Z,4.55
2018-06-16T23:57:08.350Z,5.22
2018-06-16T23:59:37.708Z,7.62
